Latest Weather Observations for King Island Airport

IDT60801

Issued at 11:05 am EDT Saturday 22 November 2014 (issued every 30 minutes, with the page automatically refreshed every 10 minutes)

About weather observations | Map of weather stations | Latest weather observations for TAS | Other Formats
Station Details ID: 098017 Name: KING ISLAND AIRPORT Lat: -39.88 Lon: 143.88 Height: 37.0 m
Data from the previous 72 hours. | See also: Recent months at King Island Airport
Date/Time
EDT
Temp
°C
App
Temp
°C
Dew
Point
Rel
Hum
%
Delta-T
°C
Wind Press
QNH
hPa
Press
MSL
hPa
Rain
since 9 am
mm
Dir
 
Spd
km/h
Gust
km/h
Spd
kts
Gust
kts
22/11:00am 16.5 14.0 13.6 83 1.6 NE 19 26 10 14 1008.2 1008.2 0.0
22/10:30am 16.6 13.2 12.6 77 2.2 NE 22 33 12 18 1007.9 1007.9 0.0
22/10:00am 17.4 13.6 12.3 72 2.8 NE 24 33 13 18 1008.1 1008.1 0.0
22/09:30am 16.7 12.8 12.0 74 2.6 NE 24 33 13 18 1008.3 1008.3 0.0
22/09:00am 15.1 12.5 11.9 81 1.7 NE 17 26 9 14 1008.5 1008.5 2.0
22/08:30am 13.8 12.0 12.2 90 0.9 NE 13 17 7 9 1008.8 1008.8 2.0
22/08:00am 13.5 11.0 12.2 92 0.7 NE 17 26 9 14 1008.9 1008.9 2.0
22/07:30am 13.2 11.1 12.3 94 0.5 NE 15 22 8 12 1009.1 1009.1 2.0
22/07:00am 12.9 10.7 12.1 95 0.4 NE 15 20 8 11 1008.6 1008.6 2.0
22/06:30am 12.7 10.4 11.9 95 0.4 NE 15 17 8 9 1008.7 1008.7 2.0
22/06:00am 13.0 9.5 12.1 94 0.5 NNE 22 30 12 16 1009.2 1009.2 2.0
22/05:30am 13.3 11.1 12.2 93 0.6 N 15 19 8 10 1010.3 1010.2 1.4
22/05:00am 13.7 10.7 12.4 92 0.7 N 20 26 11 14 1010.6 1010.5 0.6
22/04:30am 13.3 10.7 12.0 92 0.7 N 17 24 9 13 1010.6 1010.5 0.2
22/04:00am 12.7 10.8 11.8 94 0.5 N 13 17 7 9 1010.3 1010.2 0.2
22/03:30am 11.9 9.8 11.0 94 0.5 NNE 13 17 7 9 1009.7 1009.7 0.2
22/03:00am 11.3 9.0 10.5 95 0.4 NNE 13 19 7 10 1009.4 1009.4 0.2
22/02:30am 10.7 8.2 9.8 94 0.5 NE 13 17 7 9 1009.3 1009.3 0.2
22/02:00am 10.3 8.1 9.4 94 0.5 NE 11 17 6 9 1009.7 1009.7 0.2
22/01:30am 10.2 8.0 9.3 94 0.4 NE 11 13 6 7 1010.4 1010.3 0.2
22/01:00am 9.8 7.1 8.9 94 0.4 NE 13 15 7 8 1010.9 1010.8 0.2
22/12:30am 9.8 7.0 8.7 93 0.5 NE 13 15 7 8 1011.3 1011.2 0.2
22/12:00am 9.1 6.6 8.0 93 0.5 NE 11 13 6 7 1011.5 1011.4 0.2
 
Date/Time
EDT
Temp
°C
App
Temp
°C
Dew
Point
Rel
Hum
%
Delta-T
°C
Wind Press
QNH
hPa
Press
MSL
hPa
Rain
since 9 am
mm
Dir
 
Spd
km/h
Gust
km/h
Spd
kts
Gust
kts
21/11:30pm 8.9 6.7 7.7 92 0.6 NE 9 11 5 6 1012.0 1011.9 0.2
21/11:00pm 8.9 6.6 7.5 91 0.7 E 9 11 5 6 1012.1 1012.0 0.2
21/10:30pm 9.7 8.1 8.1 90 0.8 E 6 7 3 4 1012.3 1012.2 0.2
21/10:00pm 10.1 8.5 8.0 87 1.0 E 6 7 3 4 1012.3 1012.2 0.2
21/09:30pm 10.6 9.0 7.8 83 1.4 NE 6 7 3 4 1012.4 1012.3 0.2
21/09:00pm 11.9 11.5 8.4 79 1.7 CALM 0 0 0 0 1012.2 1012.1 0.2
21/08:30pm 12.7 10.7 8.6 76 2.0 NW 9 13 5 7 1012.1 1012.0 0.2
21/08:00pm 13.7 11.0 9.0 73 2.4 WNW 13 17 7 9 1011.7 1011.6 0.2
21/07:30pm 14.5 11.1 9.1 70 2.8 WNW 17 22 9 12 1011.6 1011.5 0.2
21/07:00pm 14.8 10.8 9.0 68 3.0 WNW 20 26 11 14 1011.4 1011.3 0.2
21/06:30pm 15.0 10.1 8.5 65 3.3 WNW 24 30 13 16 1011.5 1011.4 0.2
21/06:00pm 15.1 10.5 8.1 63 3.5 WNW 22 30 12 16 1011.2 1011.1 0.2
21/05:30pm 15.3 10.3 8.1 62 3.6 WNW 24 30 13 16 1011.3 1011.2 0.2
21/05:00pm 15.4 10.3 7.7 60 3.8 WNW 24 32 13 17 1011.0 1010.9 0.2
21/04:30pm 16.1 11.8 9.5 65 3.4 W 22 30 12 16 1011.0 1010.9 0.2
21/04:00pm 15.6 11.2 9.1 65 3.3 WNW 22 28 12 15 1011.0 1010.9 0.2
21/03:30pm 15.5 10.6 8.5 63 3.6 WNW 24 33 13 18 1011.1 1011.0 0.2
21/03:00pm 15.4 10.9 8.6 64 3.5 W 22 30 12 16 1011.2 1011.1 0.2
21/02:30pm 15.2 10.3 8.4 64 3.4 W 24 32 13 17 1011.3 1011.2 0.2
21/02:00pm 15.5 11.0 8.7 64 3.5 W 22 30 12 16 1011.3 1011.2 0.2
21/01:30pm 15.0 10.0 8.0 63 3.5 W 24 33 13 18 1011.3 1011.2 0.2
21/01:00pm 15.0 10.1 8.5 65 3.3 WSW 24 32 13 17 1011.3 1011.2 0.0
21/12:30pm 15.0 10.1 8.3 64 3.4 W 24 32 13 17 1011.1 1011.0 0.0
21/12:00pm 14.9 10.2 7.9 63 3.5 W 22 30 12 16 1010.9 1010.8 0.0
21/11:30am 15.0 10.2 8.7 66 3.2 WSW 24 30 13 16 1010.9 1010.8 0.0
21/11:00am 15.0 10.8 9.8 71 2.7 WSW 22 30 12 16 1010.3 1010.2 0.0
21/10:30am 12.5 8.8 10.0 85 1.3 SW 20 28 11 15 1010.2 1010.1 0.0
21/10:00am 12.9 6.8 9.7 81 1.6 W 32 39 17 21 1010.4 1010.3 0.0
21/09:30am 13.6 9.3 9.5 76 2.1 W 22 32 12 17 1009.6 1009.6 0.0
21/09:00am 13.5 10.3 9.9 79 1.9 WSW 17 26 9 14 1009.1 1009.1 11.2
21/08:30am 12.6 9.2 9.1 79 1.8 WSW 17 26 9 14 1009.2 1009.2 11.2
21/08:00am 12.4 9.0 9.1 80 1.7 WSW 17 24 9 13 1009.3 1009.3 11.2
21/07:30am 12.1 8.0 8.8 80 1.6 WSW 20 30 11 16 1008.5 1008.5 11.2
21/07:00am 12.1 8.1 9.1 82 1.5 SW 20 30 11 16 1008.2 1008.2 11.2
21/06:30am 11.8 7.5 9.2 84 1.3 SW 22 30 12 16 1007.5 1007.5 11.2
21/06:00am 11.6 7.4 9.9 89 0.9 SW 22 30 12 16 1007.0 1007.0 11.2
21/05:30am 11.7 6.9 10.4 92 0.7 SW 26 32 14 17 1006.4 1006.4 11.2
21/05:00am 12.0 7.0 11.1 94 0.5 SW 28 39 15 21 1006.1 1006.1 11.2
21/04:30am 12.2 7.7 11.4 95 0.4 SW 26 37 14 20 1005.9 1005.9 11.2
21/04:29am 12.2 7.7 11.4 95 0.4 SW 26 37 14 20 1005.9 1005.9 11.2
21/04:07am 12.4 7.6 11.8 96 0.3 SW 28 37 15 20 1005.4 1005.4 11.2
21/04:00am 12.4 7.6 11.6 95 0.4 SW 28 37 15 20 1005.4 1005.4 11.2
21/03:30am 13.1 8.5 12.2 94 0.5 WSW 28 39 15 21 1004.8 1004.8 11.0
21/03:22am 13.5 9.4 12.6 94 0.5 WSW 26 33 14 18 1004.7 1004.7 11.0
21/03:19am 13.5 9.8 12.6 94 0.5 WSW 24 33 13 18 1004.7 1004.7 11.0
21/03:17am 13.5 9.8 12.6 94 0.5 WSW 24 33 13 18 1004.6 1004.6 11.0
21/03:04am 13.8 10.8 12.7 93 0.6 WSW 20 28 11 15 1004.6 1004.6 11.0
21/03:00am 13.9 11.0 12.8 93 0.6 WSW 20 28 11 15 1004.5 1004.5 11.0
21/02:30am 14.0 11.1 12.9 93 0.6 WSW 20 32 11 17 1004.5 1004.5 11.0
21/02:00am 14.0 10.8 13.1 94 0.5 WSW 22 33 12 18 1004.4 1004.4 11.0
21/01:42am 13.9 11.2 13.0 94 0.5 WSW 19 28 10 15 1004.5 1004.5 11.0
21/01:30am 13.9 10.3 13.0 94 0.5 WSW 24 33 13 18 1004.5 1004.5 11.0
21/01:02am 13.7 10.4 12.9 95 0.4 WSW 22 32 12 17 1004.5 1004.5 11.0
21/01:00am 13.9 10.7 13.1 95 0.4 W 22 32 12 17 1004.5 1004.5 11.0
21/12:30am 14.1 10.6 13.5 96 0.3 W 24 33 13 18 1004.4 1004.4 11.0
21/12:01am 14.0 11.3 13.5 97 0.3 W 20 28 11 15 1004.4 1004.4 11.0
21/12:00am 14.0 11.3 13.5 97 0.3 W 20 28 11 15 1004.4 1004.4 11.0
 
Date/Time
EDT
Temp
°C
App
Temp
°C
Dew
Point
Rel
Hum
%
Delta-T
°C
Wind Press
QNH
hPa
Press
MSL
hPa
Rain
since 9 am
mm
Dir
 
Spd
km/h
Gust
km/h
Spd
kts
Gust
kts
20/11:30pm 14.6 11.4 14.3 98 0.2 W 24 32 13 17 1004.4 1004.4 11.0
20/11:03pm 14.7 11.6 14.4 98 0.2 WNW 24 32 13 17 1004.3 1004.3 11.0
20/11:00pm 14.7 11.6 14.4 98 0.2 WNW 24 32 13 17 1004.3 1004.3 11.0
20/10:37pm 14.7 11.9 14.2 97 0.3 WNW 22 28 12 15 1004.1 1004.1 11.0
20/10:30pm 14.7 12.5 14.4 98 0.2 WNW 19 24 10 13 1004.1 1004.1 11.0
20/10:00pm 15.1 12.1 14.8 98 0.2 WNW 24 32 13 17 1004.1 1004.1 11.0
20/09:30pm 15.5 12.3 15.2 98 0.2 NW 26 32 14 17 1004.1 1004.1 11.0
20/09:00pm 15.8 13.4 15.5 98 0.2 NW 22 28 12 15 1003.9 1003.9 11.0
20/08:30pm 15.8 13.1 15.5 98 0.2 NW 24 32 13 17 1003.7 1003.7 11.0
20/08:29pm 15.8 13.1 15.5 98 0.2 NW 24 32 13 17 1003.7 1003.7 11.0
20/08:00pm 15.8 12.6 15.3 97 0.3 NW 26 30 14 16 1003.5 1003.5 10.8
20/07:49pm 15.8 13.0 15.3 97 0.3 NW 24 32 13 17 1003.4 1003.4 10.6
20/07:30pm 16.0 13.3 15.5 97 0.3 NNW 24 32 13 17 1003.2 1003.2 10.6
20/07:28pm 16.0 13.3 15.5 97 0.3 NNW 24 32 13 17 1003.2 1003.2 10.6
20/07:00pm 16.3 12.9 15.8 97 0.3 NNW 28 37 15 20 1003.0 1003.0 10.6
20/06:32pm 16.3 12.1 15.8 97 0.3 NW 32 39 17 21 1002.8 1002.8 10.6
20/06:30pm 16.4 12.3 15.9 97 0.3 NNW 32 39 17 21 1002.9 1002.9 10.6
20/06:09pm 16.3 12.9 15.8 97 0.3 NNW 28 37 15 20 1003.0 1003.0 10.6
20/06:00pm 16.5 13.2 16.0 97 0.3 NW 28 35 15 19 1002.9 1002.9 10.6
20/05:30pm 16.5 12.8 16.0 97 0.3 NNW 30 41 16 22 1002.9 1002.9 10.6
20/05:00pm 16.3 10.0 15.7 96 0.4 N 43 63 23 34 1003.4 1003.4 10.6
20/04:56pm 16.3 10.0 15.7 96 0.4 N 43 63 23 34 1003.1 1003.1 10.6
20/04:30pm 16.2 12.0 15.6 96 0.4 N 32 39 17 21 1003.2 1003.2 10.4
20/04:29pm 16.3 12.1 15.7 96 0.4 N 32 39 17 21 1003.2 1003.2 10.4
20/04:00pm 15.7 11.2 14.9 95 0.5 NNW 32 41 17 22 1003.8 1003.8 10.0
20/03:48pm 15.5 11.6 14.5 94 0.6 NNW 28 35 15 19 1004.1 1004.1 9.6
20/03:36pm 15.4 11.5 14.4 94 0.6 NNW 28 35 15 19 1004.3 1004.3 8.8
20/03:30pm 15.4 11.5 14.3 93 0.6 NW 28 35 15 19 1004.6 1004.6 8.2
20/03:00pm 15.5 10.7 13.9 90 0.9 NW 32 43 17 23 1004.9 1004.9 6.4
20/02:30pm 15.9 10.0 12.5 80 1.9 NNW 35 54 19 29 1004.9 1004.9 2.0
20/02:23pm 17.0 12.3 13.1 78 2.2 NNW 30 37 16 20 1004.7 1004.7 1.0
20/02:00pm 18.2 16.5 13.5 74 2.7 N 15 19 8 10 1003.5 1003.5 0.6
20/01:30pm 18.8 16.6 14.5 76 2.5 N 19 28 10 15 1003.9 1003.9 0.4
20/01:00pm 19.9 18.9 15.5 76 2.6 ENE 15 22 8 12 1003.3 1003.3 0.0
20/12:30pm 20.5 18.5 13.9 66 3.8 ENE 17 26 9 14 1003.3 1003.3 0.0
20/12:00pm 18.7 16.6 14.8 78 2.3 E 19 26 10 14 1003.0 1003.0 0.0
20/11:30am 17.7 17.2 14.8 83 1.7 ESE 11 17 6 9 1004.5 1004.5 0.0
20/11:00am 17.4 14.5 15.0 86 1.4 ENE 24 33 13 18 1003.7 1003.7 0.0
20/10:30am 16.6 14.5 14.8 89 1.0 E 19 26 10 14 1003.8 1003.8 0.0
20/10:00am 16.4 14.4 14.9 91 0.9 E 19 24 10 13 1004.4 1004.4 0.0
20/09:30am 16.3 15.0 14.8 91 0.9 E 15 19 8 10 1005.1 1005.1 0.0
20/09:00am 16.2 15.2 14.7 91 0.9 E 13 15 7 8 1005.8 1005.8 0.0
20/08:30am 15.8 15.5 14.3 91 0.9 E 9 13 5 7 1006.3 1006.3 0.0
20/08:00am 15.5 16.8 14.0 91 0.9 CALM 0 7 0 4 1006.5 1006.5 0.0
20/07:30am 15.0 16.1 13.5 91 0.8 CALM 0 6 0 3 1006.1 1006.1 0.0
20/07:00am 14.9 14.8 13.3 90 0.9 SSE 6 7 3 4 1006.0 1006.0 0.0
20/06:30am 14.0 13.4 12.4 90 0.9 SSE 7 11 4 6 1005.7 1005.7 0.0
20/06:00am 14.3 12.9 12.3 88 1.1 ESE 11 15 6 8 1005.4 1005.4 0.0
20/05:30am 14.7 12.9 12.2 85 1.4 E 13 15 7 8 1005.3 1005.3 0.0
20/05:00am 14.9 12.6 11.7 81 1.7 ENE 15 19 8 10 1005.7 1005.7 0.0
20/04:30am 14.4 12.0 10.2 76 2.2 E 13 17 7 9 1005.4 1005.4 0.0
20/04:00am 14.9 12.2 10.3 74 2.4 NE 15 20 8 11 1005.7 1005.7 0.0
20/03:30am 15.1 12.1 11.9 81 1.7 NE 19 28 10 15 1006.2 1006.2 0.0
20/03:00am 14.5 12.5 12.7 89 1.0 NE 15 17 8 9 1007.2 1007.2 0.0
20/02:30am 14.5 12.5 12.7 89 1.0 NE 15 19 8 10 1007.8 1007.8 0.0
20/02:00am 14.1 12.5 12.8 92 0.7 ENE 13 17 7 9 1007.9 1007.9 0.0
20/01:30am 13.3 11.5 12.0 92 0.7 E 13 15 7 8 1008.4 1008.4 0.0
20/01:00am 13.1 11.1 11.5 90 0.9 E 13 13 7 7 1008.7 1008.7 0.0
20/12:30am 13.0 11.4 11.4 90 0.8 E 11 13 6 7 1009.0 1009.0 0.0
20/12:00am 12.8 11.1 11.2 90 0.8 E 11 11 6 6 1009.6 1009.6 0.0
 
Date/Time
EDT
Temp
°C
App
Temp
°C
Dew
Point
Rel
Hum
%
Delta-T
°C
Wind Press
QNH
hPa
Press
MSL
hPa
Rain
since 9 am
mm
Dir
 
Spd
km/h
Gust
km/h
Spd
kts
Gust
kts
19/11:30pm 13.2 12.0 11.6 90 0.9 ENE 9 11 5 6 1010.2 1010.1 0.0
19/11:00pm 14.0 13.0 12.2 89 1.0 ENE 9 11 5 6 1010.8 1010.7 0.0
19/10:30pm 14.4 13.1 12.4 88 1.1 ENE 11 13 6 7 1011.4 1011.3 0.0
19/10:00pm 14.7 13.6 12.0 84 1.5 ENE 9 13 5 7 1011.7 1011.6 0.0
19/09:30pm 14.9 13.1 10.9 77 2.1 ENE 11 13 6 7 1011.7 1011.6 0.0
19/09:00pm 15.4 14.7 10.2 71 2.7 NE 4 11 2 6 1011.7 1011.6 0.0
19/08:30pm 16.1 16.3 10.4 69 3.0 CALM 0 0 0 0 1012.1 1012.0 0.0
19/08:00pm 17.3 17.1 9.2 59 4.2 CALM 0 0 0 0 1012.0 1011.9 0.0
19/07:30pm 17.7 16.1 8.8 56 4.6 N 7 7 4 4 1012.2 1012.1 0.0
19/07:00pm 18.1 17.1 8.9 55 4.8 WNW 4 9 2 5 1012.3 1012.2 0.0
19/06:30pm 18.8 17.0 9.3 54 5.0 NNW 9 11 5 6 1012.3 1012.2 0.0
19/06:00pm 18.7 16.1 9.2 54 5.0 NW 13 19 7 10 1012.4 1012.3 0.0
19/05:30pm 18.9 15.2 9.4 54 5.0 NW 19 26 10 14 1013.1 1013.0 0.0
19/05:00pm 19.5 15.6 8.8 50 5.6 NNW 19 28 10 15 1013.0 1012.9 0.0
19/04:30pm 19.2 15.3 9.4 53 5.2 NNW 20 30 11 16 1013.4 1013.3 0.0
19/04:00pm 19.1 15.4 10.1 56 4.8 NNW 20 28 11 15 1013.8 1013.7 0.0
19/03:30pm 18.6 14.9 10.2 58 4.5 NNW 20 32 11 17 1014.5 1014.5 0.0
19/03:00pm 18.8 14.0 10.4 58 4.5 NNW 26 32 14 17 1015.0 1015.0 0.0
19/02:30pm 19.3 14.7 11.1 59 4.5 NNW 26 33 14 18 1015.2 1015.2 0.0
19/02:00pm 18.9 14.3 11.2 61 4.2 NNW 26 32 14 17 1015.6 1015.6 0.0
19/01:30pm 18.0 13.7 12.0 68 3.3 NNW 26 32 14 17 1015.9 1015.9 0.0
19/01:00pm 17.4 12.7 10.8 65 3.5 NNW 26 32 14 17 1016.0 1016.0 0.0
19/12:30pm 17.3 13.2 11.3 68 3.3 NNW 24 32 13 17 1016.6 1016.6 0.0
19/12:00pm 16.3 11.9 10.4 68 3.1 NNW 24 33 13 18 1017.5 1017.5 0.0
19/11:30am 15.9 11.4 10.2 69 3.0 N 24 35 13 19 1017.7 1017.7 0.0

Other Formats:

Comma delimited format used in spreadsheet applications
http://www.bom.gov.au/fwo/IDT60801/IDT60801.94850.axf

JavaScript Object Notation format (JSON) in row-major order
http://www.bom.gov.au/fwo/IDT60801/IDT60801.94850.json